createdAt,value
2023-12-29T00:02:53.512Z,7.80
2023-12-29T00:07:02.773Z,7.20
2023-12-29T00:15:10.567Z,10.13
2023-12-29T00:19:13.930Z,7.72
2023-12-29T00:23:18.522Z,7.85
2023-12-29T00:27:21.475Z,11.95
2023-12-29T00:31:24.568Z,10.50
2023-12-29T00:35:28.183Z,8.05
2023-12-29T00:39:39.897Z,8.82
2023-12-29T00:43:43.387Z,7.88
2023-12-29T00:47:46.488Z,9.07
2023-12-29T00:51:50.062Z,10.40
2023-12-29T00:55:54.635Z,8.43
2023-12-29T00:59:57.695Z,7.45
2023-12-29T01:04:00.826Z,9.07
2023-12-29T01:08:03.964Z,8.38
2023-12-29T01:12:09.044Z,9.38
2023-12-29T01:16:12.254Z,8.63
2023-12-29T01:20:15.798Z,8.02
2023-12-29T01:24:23.933Z,8.43
2023-12-29T01:28:31.132Z,9.52
2023-12-29T01:32:34.265Z,8.43
2023-12-29T01:36:37.318Z,8.75
2023-12-29T01:40:46.975Z,9.27
2023-12-29T01:44:55.101Z,9.35
2023-12-29T01:48:59.922Z,8.90
2023-12-29T01:53:05.951Z,9.95
2023-12-29T01:57:10.180Z,8.35
2023-12-29T02:01:16.394Z,8.13
2023-12-29T02:05:22.892Z,8.20
2023-12-29T02:09:26.016Z,8.27
2023-12-29T02:13:29.100Z,7.90
2023-12-29T02:17:40.232Z,6.68
2023-12-29T02:21:43.487Z,7.00
2023-12-29T02:25:48.324Z,6.65
2023-12-29T02:30:04.616Z,6.05
2023-12-29T02:34:12.620Z,6.30
2023-12-29T02:38:15.869Z,6.60
2023-12-29T02:42:52.794Z,6.78
2023-12-29T02:47:18.085Z,18.00
2023-12-29T02:51:23.822Z,5.78
2023-12-29T02:55:26.862Z,6.13
2023-12-29T02:59:31.378Z,6.47
2023-12-29T03:03:34.714Z,6.28
2023-12-29T03:07:37.826Z,5.93
2023-12-29T03:11:40.841Z,5.70
2023-12-29T03:15:45.228Z,5.72
2023-12-29T03:19:48.468Z,5.60
2023-12-29T03:23:51.642Z,5.70
2023-12-29T03:27:55.068Z,6.38
2023-12-29T03:32:00.272Z,6.20
2023-12-29T03:36:03.308Z,6.03
2023-12-29T03:40:07.596Z,6.45
2023-12-29T03:44:10.657Z,5.95
2023-12-29T03:48:15.148Z,5.60
2023-12-29T03:52:18.394Z,5.47
2023-12-29T03:56:21.698Z,5.47
2023-12-29T04:00:24.723Z,4.97
2023-12-29T04:04:29.327Z,5.45
2023-12-29T04:08:32.503Z,5.97
2023-12-29T04:12:35.597Z,4.95
2023-12-29T04:16:39.932Z,5.70
2023-12-29T04:20:44.370Z,4.97
2023-12-29T04:24:48.769Z,6.00
2023-12-29T04:28:51.910Z,4.90
2023-12-29T04:32:55.124Z,5.70
2023-12-29T04:37:00.108Z,5.03
2023-12-29T04:41:03.362Z,5.85
2023-12-29T04:45:07.331Z,5.72
2023-12-29T04:49:10.629Z,6.18
2023-12-29T04:53:15.084Z,5.38
2023-12-29T04:57:18.282Z,5.68
2023-12-29T05:01:21.423Z,5.38
2023-12-29T05:05:24.608Z,5.18
2023-12-29T05:09:29.109Z,4.95
2023-12-29T05:13:32.168Z,6.82
2023-12-29T05:17:35.237Z,5.80
2023-12-29T05:21:38.284Z,5.10
2023-12-29T05:25:43.195Z,4.75
2023-12-29T05:29:46.381Z,4.45
2023-12-29T05:33:49.549Z,4.10
2023-12-29T05:37:52.875Z,3.22
2023-12-29T05:41:57.415Z,3.55
2023-12-29T05:46:00.742Z,3.63
2023-12-29T05:50:04.073Z,3.70
2023-12-29T05:54:07.487Z,5.88
2023-12-29T05:58:12.112Z,6.45
2023-12-29T06:02:15.487Z,3.50
2023-12-29T06:06:18.915Z,6.40
2023-12-29T06:10:22.021Z,4.70
2023-12-29T06:14:26.589Z,7.90
2023-12-29T06:18:30.082Z,6.40
2023-12-29T06:22:33.361Z,5.00
2023-12-29T06:26:36.523Z,4.95
2023-12-29T06:30:41.063Z,3.42
2023-12-29T06:34:44.506Z,4.25
2023-12-29T06:38:49.966Z,4.45
2023-12-29T06:42:53.128Z,4.38
2023-12-29T06:46:57.681Z,3.40
2023-12-29T06:51:02.141Z,3.20
2023-12-29T06:55:05.865Z,2.72
2023-12-29T06:59:09.426Z,2.60
2023-12-29T07:03:16.717Z,2.97
2023-12-29T07:07:21.882Z,2.65
2023-12-29T07:11:25.047Z,2.47
2023-12-29T07:15:30.060Z,2.90
2023-12-29T07:19:38.561Z,2.83
2023-12-29T07:23:43.136Z,2.60
2023-12-29T07:27:46.404Z,2.85
2023-12-29T07:31:50.261Z,3.00
2023-12-29T07:35:55.014Z,2.80
2023-12-29T07:39:58.257Z,2.78
2023-12-29T07:44:01.526Z,2.97
2023-12-29T07:48:08.783Z,3.05
2023-12-29T07:52:15.401Z,2.97
2023-12-29T07:56:18.611Z,2.58
2023-12-29T08:00:23.256Z,2.88
2023-12-29T08:04:27.638Z,2.88
2023-12-29T08:08:32.289Z,2.50
2023-12-29T08:12:35.782Z,2.35
2023-12-29T08:16:40.527Z,2.40
2023-12-29T08:20:43.618Z,2.63
2023-12-29T08:24:48.195Z,2.88
2023-12-29T08:28:51.356Z,3.03
2023-12-29T08:32:54.387Z,2.72
2023-12-29T08:36:57.542Z,2.63
2023-12-29T08:41:02.125Z,2.40
2023-12-29T08:45:07.171Z,2.78
2023-12-29T08:49:10.660Z,3.13
2023-12-29T08:53:14.580Z,3.42
2023-12-29T08:57:19.012Z,7.72
2023-12-29T09:01:22.277Z,8.13
2023-12-29T09:05:27.321Z,12.32
2023-12-29T09:09:30.394Z,15.15
2023-12-29T09:13:34.941Z,13.00
2023-12-29T09:17:38.146Z,10.13
2023-12-29T09:21:43.298Z,12.32
2023-12-29T09:25:46.493Z,11.25
2023-12-29T09:29:52.193Z,5.65
2023-12-29T09:33:55.302Z,4.50
2023-12-29T09:37:58.383Z,3.35
2023-12-29T09:42:02.808Z,4.97
2023-12-29T09:46:09.605Z,3.72
2023-12-29T09:50:14.304Z,2.78
2023-12-29T09:54:18.002Z,3.15
2023-12-29T09:58:24.461Z,3.28
2023-12-29T10:02:28.981Z,2.80
2023-12-29T10:06:38.523Z,1.80
2023-12-29T10:10:43.420Z,2.53
2023-12-29T10:14:50.836Z,2.00
2023-12-29T10:19:05.732Z,2.20
2023-12-29T10:23:14.265Z,2.15
2023-12-29T10:27:17.550Z,1.83
2023-12-29T10:31:20.841Z,1.83
2023-12-29T10:35:27.811Z,1.83
2023-12-29T10:39:31.950Z,1.90
2023-12-29T10:43:34.847Z,1.58
2023-12-29T10:47:39.665Z,1.80
2023-12-29T10:51:44.184Z,2.28
2023-12-29T10:55:47.357Z,2.00
2023-12-29T10:59:57.248Z,2.10
2023-12-29T11:08:18.023Z,1.95
2023-12-29T11:12:21.226Z,2.00
2023-12-29T11:16:25.247Z,2.17
2023-12-29T11:20:28.770Z,2.90
2023-12-29T11:24:38.493Z,1.58
2023-12-29T11:28:45.246Z,1.20
2023-12-29T11:32:53.747Z,1.02
2023-12-29T11:37:08.028Z,1.33
2023-12-29T11:41:15.894Z,1.20
2023-12-29T11:45:31.107Z,1.20
2023-12-29T11:50:03.547Z,1.05
2023-12-29T11:54:07.452Z,1.30
2023-12-29T12:02:38.694Z,1.40
2023-12-29T12:06:42.040Z,1.80
2023-12-29T12:10:45.230Z,1.60
2023-12-29T12:14:50.651Z,1.40
2023-12-29T12:18:55.396Z,1.42
2023-12-29T12:23:00.472Z,1.35
2023-12-29T12:27:03.818Z,1.50
2023-12-29T12:31:08.127Z,1.90
2023-12-29T12:35:20.275Z,1.52
2023-12-29T12:39:24.663Z,1.20
2023-12-29T12:43:30.284Z,1.80
2023-12-29T12:47:38.077Z,3.53
2023-12-29T12:51:42.860Z,1.20
2023-12-29T12:55:46.040Z,2.10
2023-12-29T12:59:51.424Z,3.47
2023-12-29T13:03:55.316Z,1.80
2023-12-29T13:07:59.917Z,4.10
2023-12-29T13:12:13.724Z,3.10
2023-12-29T13:16:16.970Z,1.85
2023-12-29T13:20:20.074Z,3.33
2023-12-29T13:24:24.887Z,2.10
2023-12-29T13:28:29.245Z,2.70
2023-12-29T13:32:36.141Z,1.80
2023-12-29T13:36:44.880Z,1.40
2023-12-29T13:40:58.324Z,2.20
2023-12-29T13:45:03.718Z,1.35
2023-12-29T13:49:08.576Z,1.90
2023-12-29T13:53:19.767Z,1.90
2023-12-29T13:57:33.671Z,1.75
2023-12-29T14:01:41.095Z,2.60
2023-12-29T14:05:51.181Z,2.47
2023-12-29T14:09:56.419Z,2.72
2023-12-29T14:14:00.997Z,1.70
2023-12-29T14:18:06.644Z,1.85
2023-12-29T14:22:09.759Z,2.10
2023-12-29T14:26:12.837Z,1.60
2023-12-29T14:30:23.075Z,2.00
2023-12-29T14:34:26.308Z,2.13
2023-12-29T14:38:29.499Z,2.97
2023-12-29T14:42:32.594Z,2.95
2023-12-29T14:46:38.333Z,2.75
2023-12-29T14:50:47.592Z,2.40
2023-12-29T14:54:50.711Z,3.40
2023-12-29T14:58:53.926Z,8.40
2023-12-29T15:02:58.426Z,3.28
2023-12-29T15:07:01.674Z,3.70
2023-12-29T15:11:06.026Z,4.05
2023-12-29T15:15:09.572Z,4.63
2023-12-29T15:19:14.703Z,3.20
2023-12-29T15:23:17.704Z,2.63
2023-12-29T15:27:20.621Z,2.95
2023-12-29T15:31:25.291Z,2.50
2023-12-29T15:35:29.711Z,2.28
2023-12-29T15:39:32.634Z,1.90
2023-12-29T15:43:41.692Z,1.98
2023-12-29T15:47:47.437Z,1.60
2023-12-29T15:51:51.814Z,1.60
2023-12-29T15:55:54.837Z,1.60
2023-12-29T15:59:57.902Z,1.98
2023-12-29T16:04:01.088Z,1.55
2023-12-29T16:08:06.071Z,1.70
2023-12-29T16:22:24.792Z,1.30
2023-12-29T20:21:34.717Z,3.35
2023-12-29T20:25:40.231Z,2.33
2023-12-29T20:29:43.438Z,1.48
2023-12-29T20:33:46.846Z,1.52
2023-12-29T20:37:51.754Z,1.50
2023-12-29T20:41:55.087Z,1.40
2023-12-29T20:45:58.311Z,1.30
2023-12-29T20:50:01.616Z,7.85
2023-12-29T20:54:08.414Z,1.63
2023-12-29T20:58:11.673Z,2.63
2023-12-29T21:02:15.557Z,1.98
2023-12-29T21:06:21.600Z,2.85
2023-12-29T21:10:30.642Z,1.70
2023-12-29T21:14:36.356Z,1.63
2023-12-29T21:18:39.646Z,1.20
2023-12-29T21:22:44.213Z,1.38
2023-12-29T21:26:48.924Z,1.40
2023-12-29T21:30:52.312Z,1.60
2023-12-29T21:34:55.673Z,1.70
2023-12-29T21:38:59.955Z,1.48
2023-12-29T21:43:04.794Z,1.52
2023-12-29T21:47:08.195Z,1.80
2023-12-29T21:51:13.261Z,1.70
2023-12-29T21:55:16.533Z,1.90
2023-12-29T21:59:21.179Z,1.50
2023-12-29T22:03:24.414Z,19.88
2023-12-29T22:07:27.651Z,3.10
2023-12-29T22:11:30.968Z,8.43
2023-12-29T22:15:35.630Z,1.60
2023-12-29T22:19:40.546Z,1.40
2023-12-29T22:23:44.441Z,1.60
2023-12-29T22:27:47.760Z,1.55
2023-12-29T22:31:54.518Z,1.33
2023-12-29T22:35:57.912Z,1.98
2023-12-29T22:40:01.307Z,1.50
2023-12-29T22:44:04.608Z,1.48
2023-12-29T22:48:09.572Z,1.23
2023-12-29T22:52:12.920Z,1.40
2023-12-29T22:56:16.113Z,1.48
2023-12-29T23:00:22.067Z,1.42
2023-12-29T23:04:26.962Z,2.95
2023-12-29T23:08:30.112Z,1.90
2023-12-29T23:12:33.442Z,1.80
2023-12-29T23:16:38.377Z,1.20
2023-12-29T23:20:43.161Z,1.20
2023-12-29T23:25:05.461Z,1.23
2023-12-29T23:35:25.212Z,1.30
2023-12-29T23:51:31.069Z,1.42
2023-12-29T23:55:34.419Z,1.30
2023-12-29T23:59:37.786Z,0.98
